sensor_id;sensor_type;location;lat;lon;timestamp;P1;durP1;ratioP1;P2;durP2;ratioP2
79126;SDS011;68528;48.814;8.904;2023-03-13T00:00:57;5.60;;;1.30;;
79126;SDS011;68528;48.814;8.904;2023-03-13T00:03:23;6.40;;;1.48;;
79126;SDS011;68528;48.814;8.904;2023-03-13T00:05:49;7.70;;;1.50;;
79126;SDS011;68528;48.814;8.904;2023-03-13T00:08:18;6.90;;;1.70;;
79126;SDS011;68528;48.814;8.904;2023-03-13T00:10:44;5.40;;;1.20;;
79126;SDS011;68528;48.814;8.904;2023-03-13T00:13:10;6.68;;;1.10;;
79126;SDS011;68528;48.814;8.904;2023-03-13T00:15:35;4.75;;;1.25;;
79126;SDS011;68528;48.814;8.904;2023-03-13T00:18:03;7.95;;;1.25;;
79126;SDS011;68528;48.814;8.904;2023-03-13T00:20:29;14.20;;;2.45;;
79126;SDS011;68528;48.814;8.904;2023-03-13T00:22:55;5.57;;;2.08;;
79126;SDS011;68528;48.814;8.904;2023-03-13T00:25:20;6.53;;;1.97;;
79126;SDS011;68528;48.814;8.904;2023-03-13T00:27:47;9.93;;;1.67;;
79126;SDS011;68528;48.814;8.904;2023-03-13T00:30:14;5.60;;;2.00;;
79126;SDS011;68528;48.814;8.904;2023-03-13T00:32:40;5.03;;;1.45;;
79126;SDS011;68528;48.814;8.904;2023-03-13T00:35:10;9.32;;;1.83;;
79126;SDS011;68528;48.814;8.904;2023-03-13T00:37:39;5.70;;;1.52;;
79126;SDS011;68528;48.814;8.904;2023-03-13T00:40:05;9.85;;;1.90;;
79126;SDS011;68528;48.814;8.904;2023-03-13T00:42:32;8.13;;;1.73;;
79126;SDS011;68528;48.814;8.904;2023-03-13T00:44:57;6.38;;;1.45;;
79126;SDS011;68528;48.814;8.904;2023-03-13T00:47:22;6.63;;;2.42;;
79126;SDS011;68528;48.814;8.904;2023-03-13T00:49:52;7.35;;;1.13;;
79126;SDS011;68528;48.814;8.904;2023-03-13T00:52:19;7.47;;;1.65;;
79126;SDS011;68528;48.814;8.904;2023-03-13T00:54:44;7.15;;;1.55;;
79126;SDS011;68528;48.814;8.904;2023-03-13T00:57:10;5.47;;;1.67;;
79126;SDS011;68528;48.814;8.904;2023-03-13T00:59:35;6.90;;;1.25;;
79126;SDS011;68528;48.814;8.904;2023-03-13T01:02:01;10.52;;;1.42;;
79126;SDS011;68528;48.814;8.904;2023-03-13T01:04:26;6.28;;;1.52;;
79126;SDS011;68528;48.814;8.904;2023-03-13T01:06:51;5.20;;;1.20;;
79126;SDS011;68528;48.814;8.904;2023-03-13T01:09:17;11.50;;;1.67;;
79126;SDS011;68528;48.814;8.904;2023-03-13T01:11:44;4.20;;;1.83;;
79126;SDS011;68528;48.814;8.904;2023-03-13T01:14:11;6.32;;;1.10;;
79126;SDS011;68528;48.814;8.904;2023-03-13T01:16:39;4.47;;;1.05;;
79126;SDS011;68528;48.814;8.904;2023-03-13T01:19:07;4.15;;;1.10;;
79126;SDS011;68528;48.814;8.904;2023-03-13T01:21:36;5.57;;;1.23;;
79126;SDS011;68528;48.814;8.904;2023-03-13T01:24:02;9.00;;;1.45;;
79126;SDS011;68528;48.814;8.904;2023-03-13T01:26:28;6.75;;;1.27;;
79126;SDS011;68528;48.814;8.904;2023-03-13T01:28:54;3.63;;;1.40;;
79126;SDS011;68528;48.814;8.904;2023-03-13T01:31:20;6.57;;;1.17;;
79126;SDS011;68528;48.814;8.904;2023-03-13T01:33:52;4.78;;;1.88;;
79126;SDS011;68528;48.814;8.904;2023-03-13T01:36:19;5.50;;;1.23;;
79126;SDS011;68528;48.814;8.904;2023-03-13T01:38:49;3.80;;;1.10;;
79126;SDS011;68528;48.814;8.904;2023-03-13T01:41:16;4.45;;;1.23;;
79126;SDS011;68528;48.814;8.904;2023-03-13T01:43:47;5.13;;;1.00;;
79126;SDS011;68528;48.814;8.904;2023-03-13T01:46:13;8.63;;;1.10;;
79126;SDS011;68528;48.814;8.904;2023-03-13T01:51:23;8.57;;;1.40;;
79126;SDS011;68528;48.814;8.904;2023-03-13T01:56:30;8.65;;;1.98;;
79126;SDS011;68528;48.814;8.904;2023-03-13T01:59:01;3.88;;;1.05;;
79126;SDS011;68528;48.814;8.904;2023-03-13T02:01:28;5.25;;;1.58;;
79126;SDS011;68528;48.814;8.904;2023-03-13T02:03:55;4.07;;;1.20;;
79126;SDS011;68528;48.814;8.904;2023-03-13T02:06:22;12.40;;;1.58;;
79126;SDS011;68528;48.814;8.904;2023-03-13T02:08:50;1.50;;;0.52;;
79126;SDS011;68528;48.814;8.904;2023-03-13T02:13:56;6.80;;;1.10;;
79126;SDS011;68528;48.814;8.904;2023-03-13T02:16:23;4.88;;;1.00;;
79126;SDS011;68528;48.814;8.904;2023-03-13T02:18:49;3.70;;;0.73;;
79126;SDS011;68528;48.814;8.904;2023-03-13T02:21:28;4.30;;;0.88;;
79126;SDS011;68528;48.814;8.904;2023-03-13T02:26:37;5.13;;;1.70;;
79126;SDS011;68528;48.814;8.904;2023-03-13T02:29:03;5.20;;;0.80;;
79126;SDS011;68528;48.814;8.904;2023-03-13T02:31:28;6.95;;;1.38;;
79126;SDS011;68528;48.814;8.904;2023-03-13T02:33:55;5.53;;;1.10;;
79126;SDS011;68528;48.814;8.904;2023-03-13T02:36:24;3.63;;;0.60;;
79126;SDS011;68528;48.814;8.904;2023-03-13T02:38:54;3.67;;;0.70;;
79126;SDS011;68528;48.814;8.904;2023-03-13T02:41:25;4.28;;;1.30;;
79126;SDS011;68528;48.814;8.904;2023-03-13T02:43:55;2.97;;;0.63;;
79126;SDS011;68528;48.814;8.904;2023-03-13T02:46:21;7.82;;;1.00;;
79126;SDS011;68528;48.814;8.904;2023-03-13T02:48:47;3.70;;;0.82;;
79126;SDS011;68528;48.814;8.904;2023-03-13T02:51:16;9.73;;;1.27;;
79126;SDS011;68528;48.814;8.904;2023-03-13T02:53:45;7.28;;;1.00;;
79126;SDS011;68528;48.814;8.904;2023-03-13T02:56:14;4.75;;;0.95;;
79126;SDS011;68528;48.814;8.904;2023-03-13T02:58:43;5.53;;;1.10;;
79126;SDS011;68528;48.814;8.904;2023-03-13T03:01:09;1.33;;;0.80;;
79126;SDS011;68528;48.814;8.904;2023-03-13T03:03:34;2.78;;;0.57;;
79126;SDS011;68528;48.814;8.904;2023-03-13T03:06:01;3.58;;;1.20;;
79126;SDS011;68528;48.814;8.904;2023-03-13T03:08:27;3.30;;;0.73;;
79126;SDS011;68528;48.814;8.904;2023-03-13T03:10:53;1.48;;;0.68;;
79126;SDS011;68528;48.814;8.904;2023-03-13T03:13:18;3.90;;;0.50;;
79126;SDS011;68528;48.814;8.904;2023-03-13T03:15:44;2.95;;;0.75;;
79126;SDS011;68528;48.814;8.904;2023-03-13T03:18:09;1.90;;;0.50;;
79126;SDS011;68528;48.814;8.904;2023-03-13T03:20:35;5.28;;;0.90;;
79126;SDS011;68528;48.814;8.904;2023-03-13T03:23:00;1.48;;;0.70;;
79126;SDS011;68528;48.814;8.904;2023-03-13T03:25:25;0.33;;;0.30;;
79126;SDS011;68528;48.814;8.904;2023-03-13T03:27:51;1.42;;;0.38;;
79126;SDS011;68528;48.814;8.904;2023-03-13T03:30:16;1.40;;;0.30;;
79126;SDS011;68528;48.814;8.904;2023-03-13T03:32:42;3.03;;;0.60;;
79126;SDS011;68528;48.814;8.904;2023-03-13T03:35:08;1.27;;;0.40;;
79126;SDS011;68528;48.814;8.904;2023-03-13T03:37:34;2.00;;;0.40;;
79126;SDS011;68528;48.814;8.904;2023-03-13T03:40:00;7.93;;;0.40;;
79126;SDS011;68528;48.814;8.904;2023-03-13T03:42:25;1.20;;;0.50;;
79126;SDS011;68528;48.814;8.904;2023-03-13T03:44:50;1.98;;;0.50;;
79126;SDS011;68528;48.814;8.904;2023-03-13T03:47:16;0.93;;;0.43;;
79126;SDS011;68528;48.814;8.904;2023-03-13T03:49:41;1.52;;;0.50;;
79126;SDS011;68528;48.814;8.904;2023-03-13T03:52:06;0.50;;;0.40;;
79126;SDS011;68528;48.814;8.904;2023-03-13T03:54:32;4.85;;;0.88;;
79126;SDS011;68528;48.814;8.904;2023-03-13T03:56:57;2.15;;;0.55;;
79126;SDS011;68528;48.814;8.904;2023-03-13T03:59:23;2.10;;;0.50;;
79126;SDS011;68528;48.814;8.904;2023-03-13T04:01:48;0.65;;;0.38;;
79126;SDS011;68528;48.814;8.904;2023-03-13T04:04:13;0.57;;;0.32;;
79126;SDS011;68528;48.814;8.904;2023-03-13T04:06:39;0.43;;;0.35;;
79126;SDS011;68528;48.814;8.904;2023-03-13T04:09:04;3.78;;;0.52;;
79126;SDS011;68528;48.814;8.904;2023-03-13T04:11:50;0.70;;;0.30;;
79126;SDS011;68528;48.814;8.904;2023-03-13T04:14:16;1.92;;;0.60;;
79126;SDS011;68528;48.814;8.904;2023-03-13T04:16:42;5.53;;;0.70;;
79126;SDS011;68528;48.814;8.904;2023-03-13T04:19:07;5.15;;;0.75;;
79126;SDS011;68528;48.814;8.904;2023-03-13T04:21:33;2.20;;;0.43;;
79126;SDS011;68528;48.814;8.904;2023-03-13T04:23:58;0.65;;;0.50;;
79126;SDS011;68528;48.814;8.904;2023-03-13T04:26:23;1.17;;;0.57;;
79126;SDS011;68528;48.814;8.904;2023-03-13T04:28:49;1.98;;;0.50;;
79126;SDS011;68528;48.814;8.904;2023-03-13T04:31:20;4.10;;;0.70;;
79126;SDS011;68528;48.814;8.904;2023-03-13T04:33:46;2.58;;;0.40;;
79126;SDS011;68528;48.814;8.904;2023-03-13T04:36:11;2.38;;;0.25;;
79126;SDS011;68528;48.814;8.904;2023-03-13T04:38:36;2.30;;;0.50;;
79126;SDS011;68528;48.814;8.904;2023-03-13T04:41:02;2.63;;;0.60;;
79126;SDS011;68528;48.814;8.904;2023-03-13T04:43:27;2.45;;;0.40;;
79126;SDS011;68528;48.814;8.904;2023-03-13T04:45:53;0.47;;;0.30;;
79126;SDS011;68528;48.814;8.904;2023-03-13T04:48:19;1.25;;;0.63;;
79126;SDS011;68528;48.814;8.904;2023-03-13T04:50:46;0.60;;;0.50;;
79126;SDS011;68528;48.814;8.904;2023-03-13T04:53:12;0.57;;;0.40;;
79126;SDS011;68528;48.814;8.904;2023-03-13T04:55:38;0.30;;;0.20;;
79126;SDS011;68528;48.814;8.904;2023-03-13T04:58:04;3.28;;;0.40;;
79126;SDS011;68528;48.814;8.904;2023-03-13T05:00:29;1.70;;;0.30;;
79126;SDS011;68528;48.814;8.904;2023-03-13T05:02:54;1.33;;;0.40;;
79126;SDS011;68528;48.814;8.904;2023-03-13T05:05:20;3.63;;;0.50;;
79126;SDS011;68528;48.814;8.904;2023-03-13T05:07:45;0.73;;;0.40;;
79126;SDS011;68528;48.814;8.904;2023-03-13T05:10:11;1.95;;;0.40;;
79126;SDS011;68528;48.814;8.904;2023-03-13T05:12:36;0.17;;;0.17;;
79126;SDS011;68528;48.814;8.904;2023-03-13T05:15:02;2.88;;;0.65;;
79126;SDS011;68528;48.814;8.904;2023-03-13T05:17:27;1.88;;;0.60;;
79126;SDS011;68528;48.814;8.904;2023-03-13T05:19:53;3.75;;;0.65;;
79126;SDS011;68528;48.814;8.904;2023-03-13T05:22:18;0.20;;;0.20;;
79126;SDS011;68528;48.814;8.904;2023-03-13T05:24:46;0.52;;;0.10;;
79126;SDS011;68528;48.814;8.904;2023-03-13T05:27:11;0.30;;;0.20;;
79126;SDS011;68528;48.814;8.904;2023-03-13T05:29:38;0.30;;;0.22;;
79126;SDS011;68528;48.814;8.904;2023-03-13T05:32:03;0.20;;;0.20;;
79126;SDS011;68528;48.814;8.904;2023-03-13T05:34:29;0.22;;;0.22;;
79126;SDS011;68528;48.814;8.904;2023-03-13T05:36:54;2.35;;;0.30;;
79126;SDS011;68528;48.814;8.904;2023-03-13T05:39:20;0.30;;;0.30;;
79126;SDS011;68528;48.814;8.904;2023-03-13T05:41:45;0.98;;;0.30;;
79126;SDS011;68528;48.814;8.904;2023-03-13T05:44:11;1.45;;;0.32;;
79126;SDS011;68528;48.814;8.904;2023-03-13T05:46:39;1.35;;;0.20;;
79126;SDS011;68528;48.814;8.904;2023-03-13T05:49:04;2.37;;;0.77;;
79126;SDS011;68528;48.814;8.904;2023-03-13T05:51:29;0.30;;;0.20;;
79126;SDS011;68528;48.814;8.904;2023-03-13T05:53:55;1.30;;;0.20;;
79126;SDS011;68528;48.814;8.904;2023-03-13T05:56:20;2.25;;;1.00;;
79126;SDS011;68528;48.814;8.904;2023-03-13T05:58:45;1.70;;;0.90;;
79126;SDS011;68528;48.814;8.904;2023-03-13T06:01:12;0.60;;;0.20;;
79126;SDS011;68528;48.814;8.904;2023-03-13T06:03:44;3.70;;;0.77;;
79126;SDS011;68528;48.814;8.904;2023-03-13T06:06:09;0.50;;;0.40;;
79126;SDS011;68528;48.814;8.904;2023-03-13T06:08:35;0.05;;;0.05;;
79126;SDS011;68528;48.814;8.904;2023-03-13T06:11:01;0.25;;;0.20;;
79126;SDS011;68528;48.814;8.904;2023-03-13T06:13:27;1.95;;;0.45;;
79126;SDS011;68528;48.814;8.904;2023-03-13T06:15:54;0.47;;;0.20;;
79126;SDS011;68528;48.814;8.904;2023-03-13T06:18:21;0.65;;;0.20;;
79126;SDS011;68528;48.814;8.904;2023-03-13T06:20:55;0.68;;;0.30;;
79126;SDS011;68528;48.814;8.904;2023-03-13T06:23:25;1.17;;;0.30;;
79126;SDS011;68528;48.814;8.904;2023-03-13T06:25:51;0.20;;;0.10;;
79126;SDS011;68528;48.814;8.904;2023-03-13T06:28:17;0.20;;;0.20;;
79126;SDS011;68528;48.814;8.904;2023-03-13T06:30:42;0.28;;;0.22;;
79126;SDS011;68528;48.814;8.904;2023-03-13T06:33:08;0.82;;;0.30;;
79126;SDS011;68528;48.814;8.904;2023-03-13T06:35:34;2.20;;;0.20;;
79126;SDS011;68528;48.814;8.904;2023-03-13T06:37:59;0.25;;;0.25;;
79126;SDS011;68528;48.814;8.904;2023-03-13T06:40:25;0.32;;;0.13;;
79126;SDS011;68528;48.814;8.904;2023-03-13T06:42:50;2.05;;;0.35;;
79126;SDS011;68528;48.814;8.904;2023-03-13T06:45:15;0.25;;;0.10;;
79126;SDS011;68528;48.814;8.904;2023-03-13T06:47:41;0.40;;;0.20;;
79126;SDS011;68528;48.814;8.904;2023-03-13T06:50:07;0.47;;;0.10;;
79126;SDS011;68528;48.814;8.904;2023-03-13T06:52:32;0.47;;;0.30;;
79126;SDS011;68528;48.814;8.904;2023-03-13T06:54:58;0.40;;;0.10;;
79126;SDS011;68528;48.814;8.904;2023-03-13T06:57:25;0.57;;;0.32;;
79126;SDS011;68528;48.814;8.904;2023-03-13T06:59:50;0.30;;;0.20;;
79126;SDS011;68528;48.814;8.904;2023-03-13T07:02:15;0.17;;;0.10;;
79126;SDS011;68528;48.814;8.904;2023-03-13T07:04:41;0.52;;;0.30;;
79126;SDS011;68528;48.814;8.904;2023-03-13T07:07:07;0.25;;;0.20;;
79126;SDS011;68528;48.814;8.904;2023-03-13T07:09:33;6.25;;;0.50;;
79126;SDS011;68528;48.814;8.904;2023-03-13T07:11:58;0.15;;;0.13;;
79126;SDS011;68528;48.814;8.904;2023-03-13T07:14:27;0.20;;;0.10;;
79126;SDS011;68528;48.814;8.904;2023-03-13T07:16:53;1.00;;;0.20;;
79126;SDS011;68528;48.814;8.904;2023-03-13T07:19:19;0.38;;;0.30;;
79126;SDS011;68528;48.814;8.904;2023-03-13T07:21:44;0.45;;;0.40;;
79126;SDS011;68528;48.814;8.904;2023-03-13T07:24:11;0.45;;;0.20;;
79126;SDS011;68528;48.814;8.904;2023-03-13T07:26:36;0.50;;;0.25;;
79126;SDS011;68528;48.814;8.904;2023-03-13T07:29:02;1.13;;;0.10;;
79126;SDS011;68528;48.814;8.904;2023-03-13T07:31:29;0.20;;;0.10;;
79126;SDS011;68528;48.814;8.904;2023-03-13T07:33:58;0.17;;;0.17;;
79126;SDS011;68528;48.814;8.904;2023-03-13T07:36:24;2.08;;;1.23;;
79126;SDS011;68528;48.814;8.904;2023-03-13T07:38:50;1.63;;;0.50;;
79126;SDS011;68528;48.814;8.904;2023-03-13T07:41:16;1.83;;;0.57;;
79126;SDS011;68528;48.814;8.904;2023-03-13T07:43:42;0.43;;;0.30;;
79126;SDS011;68528;48.814;8.904;2023-03-13T07:46:09;0.90;;;0.43;;
79126;SDS011;68528;48.814;8.904;2023-03-13T07:48:37;0.75;;;0.30;;
79126;SDS011;68528;48.814;8.904;2023-03-13T07:51:05;0.22;;;0.20;;
79126;SDS011;68528;48.814;8.904;2023-03-13T07:53:32;0.43;;;0.20;;
79126;SDS011;68528;48.814;8.904;2023-03-13T07:58:26;0.70;;;0.40;;
79126;SDS011;68528;48.814;8.904;2023-03-13T08:00:53;0.52;;;0.40;;
79126;SDS011;68528;48.814;8.904;2023-03-13T08:03:18;0.20;;;0.17;;
79126;SDS011;68528;48.814;8.904;2023-03-13T08:05:45;1.05;;;0.50;;
79126;SDS011;68528;48.814;8.904;2023-03-13T08:08:10;0.32;;;0.30;;
79126;SDS011;68528;48.814;8.904;2023-03-13T08:10:35;0.50;;;0.40;;
79126;SDS011;68528;48.814;8.904;2023-03-13T08:13:01;1.50;;;0.40;;
79126;SDS011;68528;48.814;8.904;2023-03-13T08:15:26;0.40;;;0.40;;
79126;SDS011;68528;48.814;8.904;2023-03-13T08:17:52;0.22;;;0.20;;
79126;SDS011;68528;48.814;8.904;2023-03-13T08:20:18;1.65;;;0.38;;
79126;SDS011;68528;48.814;8.904;2023-03-13T08:22:45;3.17;;;0.68;;
79126;SDS011;68528;48.814;8.904;2023-03-13T08:25:11;0.85;;;0.40;;
79126;SDS011;68528;48.814;8.904;2023-03-13T08:27:37;3.15;;;0.32;;
79126;SDS011;68528;48.814;8.904;2023-03-13T08:30:02;0.55;;;0.32;;
79126;SDS011;68528;48.814;8.904;2023-03-13T08:32:31;0.30;;;0.30;;
79126;SDS011;68528;48.814;8.904;2023-03-13T08:34:57;0.82;;;0.40;;
79126;SDS011;68528;48.814;8.904;2023-03-13T08:37:23;0.67;;;0.50;;
79126;SDS011;68528;48.814;8.904;2023-03-13T08:39:48;0.60;;;0.50;;
79126;SDS011;68528;48.814;8.904;2023-03-13T08:42:13;0.32;;;0.30;;
79126;SDS011;68528;48.814;8.904;2023-03-13T08:44:39;2.10;;;0.22;;
79126;SDS011;68528;48.814;8.904;2023-03-13T08:47:05;0.57;;;0.30;;
79126;SDS011;68528;48.814;8.904;2023-03-13T08:49:31;1.17;;;0.52;;
79126;SDS011;68528;48.814;8.904;2023-03-13T08:51:57;0.70;;;0.52;;
79126;SDS011;68528;48.814;8.904;2023-03-13T08:54:22;1.92;;;0.40;;
79126;SDS011;68528;48.814;8.904;2023-03-13T08:56:48;0.65;;;0.40;;
79126;SDS011;68528;48.814;8.904;2023-03-13T08:59:13;2.28;;;0.50;;
79126;SDS011;68528;48.814;8.904;2023-03-13T09:01:39;1.20;;;0.50;;
79126;SDS011;68528;48.814;8.904;2023-03-13T09:04:06;1.02;;;0.50;;
79126;SDS011;68528;48.814;8.904;2023-03-13T09:06:32;0.75;;;0.60;;
79126;SDS011;68528;48.814;8.904;2023-03-13T09:08:59;1.80;;;0.68;;
79126;SDS011;68528;48.814;8.904;2023-03-13T09:11:25;1.83;;;0.65;;
79126;SDS011;68528;48.814;8.904;2023-03-13T09:13:51;2.53;;;0.85;;
79126;SDS011;68528;48.814;8.904;2023-03-13T09:16:19;1.05;;;0.47;;
79126;SDS011;68528;48.814;8.904;2023-03-13T09:18:47;0.82;;;0.60;;
79126;SDS011;68528;48.814;8.904;2023-03-13T09:21:14;0.90;;;0.50;;
79126;SDS011;68528;48.814;8.904;2023-03-13T09:23:42;3.35;;;0.63;;
79126;SDS011;68528;48.814;8.904;2023-03-13T09:26:07;1.90;;;0.55;;
79126;SDS011;68528;48.814;8.904;2023-03-13T09:28:34;3.97;;;0.65;;
79126;SDS011;68528;48.814;8.904;2023-03-13T09:31:10;2.25;;;0.60;;
79126;SDS011;68528;48.814;8.904;2023-03-13T09:33:38;7.20;;;0.95;;
79126;SDS011;68528;48.814;8.904;2023-03-13T09:36:04;2.22;;;0.90;;
79126;SDS011;68528;48.814;8.904;2023-03-13T09:38:32;3.17;;;0.70;;
79126;SDS011;68528;48.814;8.904;2023-03-13T09:44:05;2.92;;;0.73;;
79126;SDS011;68528;48.814;8.904;2023-03-13T09:52:01;2.20;;;1.10;;
79126;SDS011;68528;48.814;8.904;2023-03-13T09:54:32;0.80;;;0.60;;
79126;SDS011;68528;48.814;8.904;2023-03-13T09:57:16;0.80;;;0.55;;
79126;SDS011;68528;48.814;8.904;2023-03-13T09:59:51;3.08;;;0.70;;
79126;SDS011;68528;48.814;8.904;2023-03-13T10:04:43;4.20;;;0.80;;
79126;SDS011;68528;48.814;8.904;2023-03-13T10:07:13;1.95;;;0.90;;
79126;SDS011;68528;48.814;8.904;2023-03-13T10:09:38;1.33;;;0.70;;
79126;SDS011;68528;48.814;8.904;2023-03-13T10:19:40;6.63;;;1.38;;
79126;SDS011;68528;48.814;8.904;2023-03-13T10:22:11;3.67;;;0.73;;
79126;SDS011;68528;48.814;8.904;2023-03-13T10:24:47;8.23;;;0.85;;
79126;SDS011;68528;48.814;8.904;2023-03-13T10:27:18;3.38;;;0.60;;
79126;SDS011;68528;48.814;8.904;2023-03-13T10:29:43;3.78;;;0.60;;
79126;SDS011;68528;48.814;8.904;2023-03-13T10:32:10;1.15;;;0.77;;
79126;SDS011;68528;48.814;8.904;2023-03-13T10:34:45;3.30;;;0.85;;
79126;SDS011;68528;48.814;8.904;2023-03-13T10:37:32;1.77;;;0.90;;
79126;SDS011;68528;48.814;8.904;2023-03-13T10:40:13;1.77;;;0.85;;
79126;SDS011;68528;48.814;8.904;2023-03-13T10:42:49;1.13;;;0.70;;
79126;SDS011;68528;48.814;8.904;2023-03-13T10:45:17;1.48;;;0.90;;
79126;SDS011;68528;48.814;8.904;2023-03-13T10:47:44;1.00;;;0.70;;
79126;SDS011;68528;48.814;8.904;2023-03-13T10:50:18;1.75;;;0.95;;
79126;SDS011;68528;48.814;8.904;2023-03-13T10:52:47;4.05;;;0.90;;
79126;SDS011;68528;48.814;8.904;2023-03-13T10:55:23;1.30;;;1.02;;
79126;SDS011;68528;48.814;8.904;2023-03-13T10:57:59;2.03;;;1.00;;
79126;SDS011;68528;48.814;8.904;2023-03-13T11:02:56;3.80;;;0.95;;
79126;SDS011;68528;48.814;8.904;2023-03-13T11:07:47;2.50;;;1.10;;
79126;SDS011;68528;48.814;8.904;2023-03-13T11:12:46;3.20;;;0.88;;
79126;SDS011;68528;48.814;8.904;2023-03-13T11:15:19;1.92;;;1.05;;
79126;SDS011;68528;48.814;8.904;2023-03-13T11:18:05;2.47;;;0.80;;
79126;SDS011;68528;48.814;8.904;2023-03-13T11:20:41;0.90;;;0.60;;
79126;SDS011;68528;48.814;8.904;2023-03-13T11:23:15;1.30;;;0.73;;
79126;SDS011;68528;48.814;8.904;2023-03-13T11:26:11;1.42;;;0.70;;
79126;SDS011;68528;48.814;8.904;2023-03-13T11:31:44;2.60;;;0.80;;
79126;SDS011;68528;48.814;8.904;2023-03-13T11:37:14;2.00;;;0.80;;
79126;SDS011;68528;48.814;8.904;2023-03-13T11:47:48;3.05;;;1.00;;
79126;SDS011;68528;48.814;8.904;2023-03-13T11:55:49;0.70;;;0.65;;
79126;SDS011;68528;48.814;8.904;2023-03-13T12:06:33;3.60;;;1.00;;
79126;SDS011;68528;48.814;8.904;2023-03-13T12:09:13;1.02;;;0.80;;
79126;SDS011;68528;48.814;8.904;2023-03-13T12:11:46;1.35;;;0.95;;
79126;SDS011;68528;48.814;8.904;2023-03-13T12:14:49;2.53;;;1.02;;
79126;SDS011;68528;48.814;8.904;2023-03-13T12:17:28;0.82;;;0.80;;
79126;SDS011;68528;48.814;8.904;2023-03-13T12:25:37;0.90;;;0.60;;
79126;SDS011;68528;48.814;8.904;2023-03-13T12:34:51;5.00;;;0.98;;
79126;SDS011;68528;48.814;8.904;2023-03-13T12:40:09;0.82;;;0.40;;
79126;SDS011;68528;48.814;8.904;2023-03-13T12:42:54;1.20;;;0.50;;
79126;SDS011;68528;48.814;8.904;2023-03-13T12:57:07;1.98;;;0.68;;
79126;SDS011;68528;48.814;8.904;2023-03-13T12:59:52;1.42;;;0.70;;
79126;SDS011;68528;48.814;8.904;2023-03-13T13:02:36;1.25;;;0.73;;
79126;SDS011;68528;48.814;8.904;2023-03-13T13:05:57;1.17;;;0.63;;
79126;SDS011;68528;48.814;8.904;2023-03-13T13:08:40;1.73;;;0.60;;
79126;SDS011;68528;48.814;8.904;2023-03-13T13:14:05;0.88;;;0.60;;
79126;SDS011;68528;48.814;8.904;2023-03-13T13:16:59;1.98;;;0.40;;
79126;SDS011;68528;48.814;8.904;2023-03-13T13:27:53;2.92;;;0.88;;
79126;SDS011;68528;48.814;8.904;2023-03-13T13:32:53;1.77;;;0.80;;
79126;SDS011;68528;48.814;8.904;2023-03-13T13:35:29;5.22;;;0.63;;
79126;SDS011;68528;48.814;8.904;2023-03-13T13:43:32;1.85;;;0.65;;
79126;SDS011;68528;48.814;8.904;2023-03-13T13:46:00;1.00;;;0.57;;
79126;SDS011;68528;48.814;8.904;2023-03-13T13:48:44;0.40;;;0.30;;
79126;SDS011;68528;48.814;8.904;2023-03-13T13:58:58;2.20;;;0.47;;
79126;SDS011;68528;48.814;8.904;2023-03-13T14:01:27;4.50;;;0.80;;
79126;SDS011;68528;48.814;8.904;2023-03-13T14:04:03;1.88;;;0.70;;
79126;SDS011;68528;48.814;8.904;2023-03-13T14:06:36;5.68;;;1.20;;
79126;SDS011;68528;48.814;8.904;2023-03-13T14:09:52;2.55;;;0.50;;
79126;SDS011;68528;48.814;8.904;2023-03-13T14:18:11;6.85;;;0.75;;
79126;SDS011;68528;48.814;8.904;2023-03-13T14:21:22;2.35;;;0.63;;
79126;SDS011;68528;48.814;8.904;2023-03-13T14:24:11;2.70;;;0.93;;
79126;SDS011;68528;48.814;8.904;2023-03-13T14:26:37;3.38;;;0.80;;
79126;SDS011;68528;48.814;8.904;2023-03-13T14:29:18;2.75;;;1.13;;
79126;SDS011;68528;48.814;8.904;2023-03-13T14:32:02;0.60;;;0.60;;
79126;SDS011;68528;48.814;8.904;2023-03-13T14:34:28;0.32;;;0.30;;
79126;SDS011;68528;48.814;8.904;2023-03-13T14:36:55;1.05;;;0.45;;
79126;SDS011;68528;48.814;8.904;2023-03-13T14:42:21;2.22;;;0.85;;
79126;SDS011;68528;48.814;8.904;2023-03-13T14:44:50;5.80;;;0.68;;
79126;SDS011;68528;48.814;8.904;2023-03-13T14:47:25;1.27;;;0.60;;
79126;SDS011;68528;48.814;8.904;2023-03-13T14:49:57;1.10;;;0.60;;
79126;SDS011;68528;48.814;8.904;2023-03-13T14:52:31;2.55;;;0.93;;
79126;SDS011;68528;48.814;8.904;2023-03-13T14:58:22;3.63;;;0.60;;
79126;SDS011;68528;48.814;8.904;2023-03-13T15:00:51;0.73;;;0.40;;
79126;SDS011;68528;48.814;8.904;2023-03-13T15:03:18;1.58;;;0.65;;
79126;SDS011;68528;48.814;8.904;2023-03-13T15:08:26;0.85;;;0.65;;
79126;SDS011;68528;48.814;8.904;2023-03-13T15:10:51;1.45;;;0.50;;
79126;SDS011;68528;48.814;8.904;2023-03-13T15:15:56;1.00;;;0.60;;
79126;SDS011;68528;48.814;8.904;2023-03-13T15:18:23;1.40;;;0.52;;
79126;SDS011;68528;48.814;8.904;2023-03-13T15:20:51;1.63;;;0.40;;
79126;SDS011;68528;48.814;8.904;2023-03-13T15:23:18;0.73;;;0.30;;
79126;SDS011;68528;48.814;8.904;2023-03-13T15:25:45;1.85;;;0.57;;
79126;SDS011;68528;48.814;8.904;2023-03-13T15:28:17;0.85;;;0.35;;
79126;SDS011;68528;48.814;8.904;2023-03-13T15:30:45;0.47;;;0.20;;
79126;SDS011;68528;48.814;8.904;2023-03-13T15:33:17;2.20;;;0.40;;
79126;SDS011;68528;48.814;8.904;2023-03-13T15:35:46;1.52;;;0.40;;
79126;SDS011;68528;48.814;8.904;2023-03-13T15:38:13;1.65;;;0.43;;
79126;SDS011;68528;48.814;8.904;2023-03-13T15:40:41;2.05;;;0.68;;
79126;SDS011;68528;48.814;8.904;2023-03-13T15:43:07;0.60;;;0.40;;
79126;SDS011;68528;48.814;8.904;2023-03-13T15:45:33;0.77;;;0.50;;
79126;SDS011;68528;48.814;8.904;2023-03-13T15:48:00;1.33;;;0.40;;
79126;SDS011;68528;48.814;8.904;2023-03-13T15:50:32;2.60;;;0.60;;
79126;SDS011;68528;48.814;8.904;2023-03-13T15:53:00;1.90;;;0.80;;
79126;SDS011;68528;48.814;8.904;2023-03-13T15:55:53;0.88;;;0.52;;
79126;SDS011;68528;48.814;8.904;2023-03-13T15:58:20;1.25;;;0.50;;
79126;SDS011;68528;48.814;8.904;2023-03-13T16:00:45;3.80;;;0.68;;
79126;SDS011;68528;48.814;8.904;2023-03-13T16:03:15;3.30;;;0.98;;
79126;SDS011;68528;48.814;8.904;2023-03-13T16:05:43;1.77;;;0.52;;
79126;SDS011;68528;48.814;8.904;2023-03-13T16:08:33;0.70;;;0.50;;
79126;SDS011;68528;48.814;8.904;2023-03-13T16:10:58;0.77;;;0.40;;
79126;SDS011;68528;48.814;8.904;2023-03-13T16:13:26;0.45;;;0.38;;
79126;SDS011;68528;48.814;8.904;2023-03-13T16:15:52;4.85;;;0.90;;
79126;SDS011;68528;48.814;8.904;2023-03-13T16:18:19;1.05;;;0.52;;
79126;SDS011;68528;48.814;8.904;2023-03-13T16:20:46;3.05;;;0.70;;
79126;SDS011;68528;48.814;8.904;2023-03-13T16:23:11;1.40;;;0.43;;
79126;SDS011;68528;48.814;8.904;2023-03-13T16:25:37;1.50;;;0.60;;
79126;SDS011;68528;48.814;8.904;2023-03-13T16:28:04;1.58;;;0.50;;
79126;SDS011;68528;48.814;8.904;2023-03-13T16:30:31;1.10;;;0.50;;
79126;SDS011;68528;48.814;8.904;2023-03-13T16:32:58;1.90;;;0.50;;
79126;SDS011;68528;48.814;8.904;2023-03-13T16:35:24;2.22;;;0.40;;
79126;SDS011;68528;48.814;8.904;2023-03-13T16:37:55;0.80;;;0.50;;
79126;SDS011;68528;48.814;8.904;2023-03-13T16:40:23;1.48;;;0.50;;
79126;SDS011;68528;48.814;8.904;2023-03-13T16:42:53;2.75;;;0.40;;
79126;SDS011;68528;48.814;8.904;2023-03-13T16:45:19;0.50;;;0.43;;
79126;SDS011;68528;48.814;8.904;2023-03-13T16:47:45;4.00;;;0.85;;
79126;SDS011;68528;48.814;8.904;2023-03-13T16:50:30;1.63;;;1.27;;
79126;SDS011;68528;48.814;8.904;2023-03-13T16:52:57;1.20;;;0.80;;
79126;SDS011;68528;48.814;8.904;2023-03-13T16:55:23;1.23;;;0.60;;
79126;SDS011;68528;48.814;8.904;2023-03-13T16:57:53;1.63;;;0.63;;
79126;SDS011;68528;48.814;8.904;2023-03-13T17:00:20;3.67;;;0.55;;
79126;SDS011;68528;48.814;8.904;2023-03-13T17:02:47;0.98;;;0.80;;
79126;SDS011;68528;48.814;8.904;2023-03-13T17:05:12;0.50;;;0.50;;
79126;SDS011;68528;48.814;8.904;2023-03-13T17:07:40;1.35;;;0.70;;
79126;SDS011;68528;48.814;8.904;2023-03-13T17:12:38;1.73;;;0.50;;
79126;SDS011;68528;48.814;8.904;2023-03-13T17:15:04;0.90;;;0.50;;
79126;SDS011;68528;48.814;8.904;2023-03-13T17:17:29;4.70;;;0.70;;